createdAt,value
2018-05-24T00:00:40.706Z,12.40
2018-05-24T00:03:07.316Z,12.10
2018-05-24T00:05:33.938Z,12.10
2018-05-24T00:08:00.549Z,11.70
2018-05-24T00:10:27.142Z,12.00
2018-05-24T00:12:53.780Z,11.13
2018-05-24T00:15:20.377Z,12.37
2018-05-24T00:17:47.009Z,17.40
2018-05-24T00:20:13.604Z,12.37
2018-05-24T00:22:40.221Z,11.83
2018-05-24T00:25:06.814Z,11.70
2018-05-24T00:27:33.456Z,12.90
2018-05-24T00:30:00.048Z,12.37
2018-05-24T00:32:26.639Z,13.03
2018-05-24T00:34:53.278Z,12.33
2018-05-24T00:37:19.887Z,13.60
2018-05-24T00:39:46.482Z,15.40
2018-05-24T00:42:13.087Z,12.53
2018-05-24T00:44:39.713Z,11.20
2018-05-24T00:47:06.299Z,11.93
2018-05-24T00:49:32.927Z,11.93
2018-05-24T00:51:59.531Z,13.27
2018-05-24T00:54:26.148Z,11.97
2018-05-24T00:56:52.732Z,14.27
2018-05-24T00:59:19.377Z,13.20
2018-05-24T01:01:45.994Z,12.30
2018-05-24T01:04:12.625Z,12.27
2018-05-24T01:06:39.210Z,13.20
2018-05-24T01:09:05.831Z,12.50
2018-05-24T01:11:32.431Z,16.83
2018-05-24T01:13:59.022Z,11.83
2018-05-24T01:16:25.645Z,12.30
2018-05-24T01:18:52.239Z,13.47
2018-05-24T01:21:18.887Z,12.97
2018-05-24T01:23:45.555Z,17.60
2018-05-24T01:26:12.178Z,12.80
2018-05-24T01:28:38.775Z,13.50
2018-05-24T01:31:05.397Z,12.27
2018-05-24T01:33:31.994Z,14.93
2018-05-24T01:35:58.639Z,12.80
2018-05-24T01:38:25.244Z,12.57
2018-05-24T01:40:51.821Z,11.60
2018-05-24T01:43:18.452Z,12.40
2018-05-24T01:45:45.063Z,11.50
2018-05-24T01:48:11.697Z,13.90
2018-05-24T01:50:38.286Z,12.30
2018-05-24T01:53:04.907Z,12.00
2018-05-24T01:55:31.510Z,11.40
2018-05-24T01:57:58.157Z,12.20
2018-05-24T02:00:24.736Z,11.33
2018-05-24T02:02:51.411Z,11.57
2018-05-24T02:05:17.992Z,12.10
2018-05-24T02:07:44.597Z,10.77
2018-05-24T02:10:11.286Z,12.40
2018-05-24T02:12:37.914Z,10.50
2018-05-24T02:15:04.687Z,10.53
2018-05-24T02:17:31.283Z,11.50
2018-05-24T02:19:57.905Z,18.03
2018-05-24T02:22:24.492Z,11.73
2018-05-24T02:24:51.294Z,10.47
2018-05-24T02:27:17.885Z,9.80
2018-05-24T02:29:44.499Z,11.67
2018-05-24T02:32:11.097Z,17.10
2018-05-24T02:34:37.747Z,9.97
2018-05-24T02:37:04.362Z,11.60
2018-05-24T02:39:30.980Z,9.10
2018-05-24T02:41:57.647Z,10.17
2018-05-24T02:44:24.265Z,10.37
2018-05-24T02:46:50.858Z,11.80
2018-05-24T02:49:17.525Z,10.47
2018-05-24T02:51:44.109Z,10.77
2018-05-24T02:54:10.730Z,11.37
2018-05-24T02:56:37.348Z,11.10
2018-05-24T02:59:03.949Z,10.77
2018-05-24T03:01:30.570Z,14.70
2018-05-24T03:03:57.250Z,10.90
2018-05-24T03:06:23.810Z,15.53
2018-05-24T03:08:50.433Z,12.77
2018-05-24T03:11:17.039Z,11.47
2018-05-24T03:13:43.629Z,11.97
2018-05-24T03:16:10.243Z,11.67
2018-05-24T03:18:36.826Z,14.03
2018-05-24T03:21:03.454Z,11.47
2018-05-24T03:23:30.182Z,16.40
2018-05-24T03:25:56.791Z,11.40
2018-05-24T03:28:23.420Z,11.17
2018-05-24T03:30:50.035Z,11.20
2018-05-24T03:33:16.836Z,12.40
2018-05-24T03:35:43.436Z,11.00
2018-05-24T03:38:10.044Z,10.90
2018-05-24T03:40:36.970Z,10.43
2018-05-24T03:43:03.559Z,10.80
2018-05-24T03:45:30.192Z,10.23
2018-05-24T03:47:56.799Z,11.20
2018-05-24T03:50:23.708Z,9.77
2018-05-24T03:52:50.316Z,10.23
2018-05-24T03:55:17.141Z,10.17
2018-05-24T03:57:43.763Z,9.73
2018-05-24T04:00:16.263Z,9.87
2018-05-24T04:02:48.591Z,10.37
2018-05-24T04:05:15.179Z,10.63
2018-05-24T04:07:41.829Z,9.97
2018-05-24T04:10:08.422Z,9.87
2018-05-24T04:12:35.038Z,9.83
2018-05-24T04:15:01.618Z,9.10
2018-05-24T04:17:28.327Z,9.80
2018-05-24T04:19:55.103Z,10.23
2018-05-24T04:22:21.704Z,10.93
2018-05-24T04:24:48.779Z,10.20
2018-05-24T04:27:15.830Z,9.97
2018-05-24T04:29:43.631Z,10.07
2018-05-24T04:32:10.352Z,10.00
2018-05-24T04:34:36.962Z,10.77
2018-05-24T04:37:03.616Z,11.87
2018-05-24T04:39:30.233Z,10.37
2018-05-24T04:41:56.866Z,12.07
2018-05-24T04:44:23.550Z,10.87
2018-05-24T04:46:56.993Z,9.83
2018-05-24T04:49:23.614Z,11.40
2018-05-24T04:51:50.347Z,11.13
2018-05-24T04:54:16.966Z,10.57
2018-05-24T04:56:43.553Z,10.27
2018-05-24T04:59:10.212Z,11.20
2018-05-24T05:01:36.905Z,10.37
2018-05-24T05:04:03.449Z,10.03
2018-05-24T05:06:30.083Z,10.10
2018-05-24T05:08:56.654Z,10.67
2018-05-24T05:11:23.295Z,11.97
2018-05-24T05:13:49.893Z,13.37
2018-05-24T05:16:16.515Z,11.60
2018-05-24T05:18:43.096Z,9.07
2018-05-24T05:21:09.765Z,9.17
2018-05-24T05:23:36.429Z,9.33
2018-05-24T05:26:03.147Z,9.10
2018-05-24T05:28:29.781Z,9.10
2018-05-24T05:30:56.388Z,8.20
2018-05-24T05:33:23.170Z,7.40
2018-05-24T05:35:49.860Z,8.63
2018-05-24T05:38:16.493Z,8.53
2018-05-24T05:40:43.087Z,8.10
2018-05-24T05:43:09.726Z,8.70
2018-05-24T05:45:36.311Z,8.03
2018-05-24T05:48:03.330Z,8.30
2018-05-24T05:50:29.943Z,7.80
2018-05-24T05:52:56.741Z,8.83
2018-05-24T05:55:23.343Z,8.50
2018-05-24T05:57:49.967Z,9.07
2018-05-24T06:00:16.557Z,8.70
2018-05-24T06:02:43.170Z,8.77
2018-05-24T06:05:09.743Z,8.67
2018-05-24T06:07:36.360Z,8.97
2018-05-24T06:10:02.942Z,12.37
2018-05-24T06:12:29.584Z,9.73
2018-05-24T06:14:56.163Z,9.90
2018-05-24T06:17:22.758Z,9.20
2018-05-24T06:19:49.532Z,9.67
2018-05-24T06:22:16.149Z,9.37
2018-05-24T06:24:42.804Z,9.67
2018-05-24T06:27:09.431Z,8.90
2018-05-24T06:29:36.294Z,8.47
2018-05-24T06:32:03.100Z,8.90
2018-05-24T06:34:29.673Z,8.97
2018-05-24T06:36:56.378Z,11.30
2018-05-24T06:39:22.914Z,8.23
2018-05-24T06:41:49.840Z,9.53
2018-05-24T06:44:16.500Z,8.77
2018-05-24T06:46:43.115Z,11.60
2018-05-24T06:49:09.730Z,15.57
2018-05-24T06:51:36.301Z,8.93
2018-05-24T06:54:02.930Z,9.47
2018-05-24T06:56:29.505Z,9.07
2018-05-24T06:58:56.101Z,9.63
2018-05-24T07:01:22.910Z,9.87
2018-05-24T07:03:49.611Z,9.97
2018-05-24T07:06:16.461Z,9.53
2018-05-24T07:08:43.357Z,9.43
2018-05-24T07:11:10.002Z,10.47
2018-05-24T07:13:36.604Z,9.80
2018-05-24T07:16:03.208Z,9.80
2018-05-24T07:18:29.852Z,9.43
2018-05-24T07:20:56.475Z,9.80
2018-05-24T07:23:23.071Z,10.87
2018-05-24T07:25:49.725Z,10.93
2018-05-24T07:28:16.414Z,11.80
2018-05-24T07:30:43.035Z,9.60
2018-05-24T07:33:09.630Z,10.27
2018-05-24T07:35:36.242Z,11.20
2018-05-24T07:38:02.876Z,10.23
2018-05-24T07:40:29.699Z,10.73
2018-05-24T07:42:56.329Z,12.30
2018-05-24T07:45:22.989Z,11.73
2018-05-24T07:47:49.863Z,10.83
2018-05-24T07:50:16.512Z,12.00
2018-05-24T07:52:43.119Z,13.87
2018-05-24T07:55:09.723Z,13.33
2018-05-24T07:57:36.362Z,13.97
2018-05-24T08:00:02.965Z,11.43
2018-05-24T08:02:29.586Z,12.00
2018-05-24T08:04:57.037Z,12.43
2018-05-24T08:07:23.700Z,11.27
2018-05-24T08:09:50.314Z,12.20
2018-05-24T08:12:16.933Z,12.90
2018-05-24T08:14:43.649Z,11.57
2018-05-24T08:17:10.246Z,10.83
2018-05-24T08:19:36.828Z,11.23
2018-05-24T08:22:03.445Z,10.40
2018-05-24T08:24:30.038Z,10.87
2018-05-24T08:26:56.661Z,11.00
2018-05-24T08:29:23.249Z,10.43
2018-05-24T08:31:49.932Z,11.07
2018-05-24T08:34:16.536Z,10.97
2018-05-24T08:36:43.123Z,11.60
2018-05-24T08:39:09.741Z,9.70
2018-05-24T08:41:36.359Z,11.23
2018-05-24T08:44:02.944Z,11.20
2018-05-24T08:46:29.564Z,11.70
2018-05-24T08:48:56.179Z,12.60
2018-05-24T08:51:22.779Z,11.77
2018-05-24T08:53:49.403Z,11.90
2018-05-24T08:56:16.321Z,11.67
2018-05-24T08:58:42.926Z,12.00
2018-05-24T09:01:09.518Z,11.63
2018-05-24T09:03:36.131Z,12.53
2018-05-24T09:06:02.785Z,11.00
2018-05-24T09:08:29.389Z,11.50
2018-05-24T09:10:56.022Z,13.40
2018-05-24T09:13:22.609Z,13.23
2018-05-24T09:15:49.243Z,12.90
2018-05-24T09:18:15.826Z,11.67
2018-05-24T09:20:42.433Z,12.20
2018-05-24T09:23:09.028Z,12.30
2018-05-24T09:25:35.649Z,13.10
2018-05-24T09:28:02.340Z,12.80
2018-05-24T09:30:28.972Z,12.30
2018-05-24T09:32:55.597Z,12.17
2018-05-24T09:35:23.041Z,13.63
2018-05-24T09:37:49.780Z,14.07
2018-05-24T09:40:16.406Z,13.60
2018-05-24T09:42:43.058Z,13.63
2018-05-24T09:45:09.715Z,13.23
2018-05-24T09:47:36.354Z,15.17
2018-05-24T09:50:03.046Z,13.60
2018-05-24T09:52:29.761Z,15.70
2018-05-24T09:54:56.388Z,14.43
2018-05-24T09:57:23.002Z,14.73
2018-05-24T09:59:49.593Z,16.13
2018-05-24T10:02:16.231Z,14.57
2018-05-24T10:04:42.889Z,13.97
2018-05-24T10:07:09.502Z,14.70
2018-05-24T10:09:36.099Z,13.27
2018-05-24T10:12:02.705Z,12.07
2018-05-24T10:14:29.338Z,13.50
2018-05-24T10:16:56.099Z,13.50
2018-05-24T10:19:22.971Z,12.43
2018-05-24T10:21:49.862Z,6.27
2018-05-24T10:24:16.506Z,7.40
2018-05-24T10:26:44.319Z,6.50
2018-05-24T10:29:10.988Z,7.23
2018-05-24T10:31:37.579Z,6.93
2018-05-24T10:34:04.221Z,7.17
2018-05-24T10:36:30.954Z,7.97
2018-05-24T10:38:57.546Z,8.87
2018-05-24T10:41:24.857Z,9.93
2018-05-24T10:43:52.311Z,8.30
2018-05-24T10:46:20.700Z,8.80
2018-05-24T10:48:49.986Z,8.07
2018-05-24T10:51:16.884Z,9.00
2018-05-24T10:53:46.598Z,8.83
2018-05-24T10:56:13.813Z,9.60
2018-05-24T10:58:41.351Z,8.70
2018-05-24T11:01:14.289Z,9.03
2018-05-24T11:03:42.776Z,8.90
2018-05-24T11:06:10.734Z,8.23
2018-05-24T11:08:40.279Z,8.93
2018-05-24T11:11:08.618Z,7.80
2018-05-24T11:13:36.118Z,7.40
2018-05-24T11:16:04.782Z,8.00
2018-05-24T11:18:33.055Z,8.43
2018-05-24T11:21:00.759Z,8.00
2018-05-24T11:23:28.038Z,7.60
2018-05-24T11:25:55.337Z,11.17
2018-05-24T11:28:22.518Z,7.20
2018-05-24T11:30:50.889Z,9.17
2018-05-24T11:33:18.819Z,7.10
2018-05-24T11:35:45.884Z,6.17
2018-05-24T11:38:13.120Z,6.30
2018-05-24T11:40:40.134Z,6.80
2018-05-24T11:43:07.554Z,6.07
2018-05-24T11:45:34.544Z,5.90
2018-05-24T11:48:01.454Z,6.73
2018-05-24T11:50:28.764Z,6.50
2018-05-24T11:52:55.844Z,7.00
2018-05-24T11:55:22.812Z,6.90
2018-05-24T11:57:50.311Z,6.73
2018-05-24T12:00:17.398Z,6.43
2018-05-24T12:02:45.438Z,6.83
2018-05-24T12:05:12.382Z,6.83
2018-05-24T12:07:39.844Z,6.30
2018-05-24T12:10:08.469Z,6.33
2018-05-24T12:12:37.297Z,6.27
2018-05-24T12:15:04.147Z,5.87
2018-05-24T12:17:31.725Z,5.80
2018-05-24T12:19:59.266Z,6.77
2018-05-24T12:22:26.372Z,6.27
2018-05-24T12:24:53.245Z,6.03
2018-05-24T12:27:19.819Z,6.70
2018-05-24T12:29:46.693Z,5.30
2018-05-24T12:32:13.260Z,6.37
2018-05-24T12:34:39.870Z,5.93
2018-05-24T12:37:06.462Z,6.03
2018-05-24T12:39:33.169Z,6.50
2018-05-24T12:41:59.739Z,5.47
2018-05-24T12:44:26.377Z,6.33
2018-05-24T12:46:52.956Z,6.70
2018-05-24T12:49:19.546Z,6.67
2018-05-24T12:51:46.198Z,7.03
2018-05-24T12:54:12.835Z,7.10
2018-05-24T12:56:39.451Z,7.30
2018-05-24T12:59:06.106Z,8.90
2018-05-24T13:01:32.799Z,8.93
2018-05-24T13:03:59.462Z,7.60
2018-05-24T13:06:26.192Z,6.80
2018-05-24T13:08:52.796Z,25.77
2018-05-24T13:11:19.502Z,7.23
2018-05-24T13:13:46.063Z,7.37
2018-05-24T13:16:12.700Z,7.27
2018-05-24T13:18:39.422Z,6.90
2018-05-24T13:21:06.281Z,7.80
2018-05-24T13:23:32.878Z,7.23
2018-05-24T13:25:59.458Z,6.70
2018-05-24T13:28:26.073Z,7.60
2018-05-24T13:30:52.642Z,8.33
2018-05-24T13:33:19.679Z,7.50
2018-05-24T13:35:46.286Z,7.03
2018-05-24T13:38:12.884Z,6.00
2018-05-24T13:40:39.489Z,5.73
2018-05-24T13:43:06.144Z,5.40
2018-05-24T13:45:32.828Z,6.90
2018-05-24T13:47:59.436Z,6.57
2018-05-24T13:50:26.017Z,5.70
2018-05-24T13:52:52.786Z,5.47
2018-05-24T13:55:19.415Z,5.27
2018-05-24T13:57:46.037Z,5.93
2018-05-24T14:00:12.619Z,6.60
2018-05-24T14:02:39.258Z,5.23
2018-05-24T14:05:05.939Z,5.70
2018-05-24T14:07:33.398Z,5.33
2018-05-24T14:10:00.060Z,5.10
2018-05-24T14:12:26.655Z,4.90
2018-05-24T14:14:53.270Z,4.83
2018-05-24T14:17:19.866Z,5.30
2018-05-24T14:19:46.519Z,4.30
2018-05-24T14:22:13.131Z,5.63
2018-05-24T14:24:39.748Z,3.63
2018-05-24T14:27:06.820Z,3.73
2018-05-24T14:29:33.423Z,4.17
2018-05-24T14:32:00.322Z,3.67
2018-05-24T14:34:27.037Z,3.80
2018-05-24T14:36:53.618Z,3.30
2018-05-24T14:39:20.250Z,3.80
2018-05-24T14:41:46.851Z,2.90
2018-05-24T14:44:13.453Z,3.07
2018-05-24T14:46:40.349Z,4.00
2018-05-24T14:49:06.972Z,3.87
2018-05-24T14:51:33.618Z,2.90
2018-05-24T14:54:00.212Z,3.80
2018-05-24T14:56:26.984Z,3.20
2018-05-24T14:58:53.577Z,3.50
2018-05-24T15:01:20.230Z,3.20
2018-05-24T15:03:46.890Z,4.00
2018-05-24T15:06:13.526Z,3.70
2018-05-24T15:08:40.149Z,3.00
2018-05-24T15:11:06.790Z,3.47
2018-05-24T15:17:08.893Z,3.17
2018-05-24T15:19:35.499Z,3.50
2018-05-24T15:22:02.115Z,3.10
2018-05-24T15:24:28.823Z,3.10
2018-05-24T15:26:55.428Z,3.40
2018-05-24T15:29:22.080Z,2.83
2018-05-24T15:31:48.903Z,3.10
2018-05-24T15:34:15.499Z,3.67
2018-05-24T15:36:42.155Z,3.37
2018-05-24T15:39:08.782Z,3.20
2018-05-24T15:41:35.372Z,3.53
2018-05-24T15:44:02.689Z,3.37
2018-05-24T15:46:29.259Z,3.40
2018-05-24T15:48:55.879Z,3.90
2018-05-24T15:51:22.466Z,4.50
2018-05-24T15:53:49.103Z,3.77
2018-05-24T15:56:15.678Z,4.10
2018-05-24T15:58:42.310Z,8.17
2018-05-24T16:01:08.917Z,4.17
2018-05-24T16:03:35.514Z,4.43
2018-05-24T16:06:02.150Z,4.97
2018-05-24T16:08:28.742Z,4.93
2018-05-24T16:10:55.351Z,5.40
2018-05-24T16:13:21.953Z,5.67
2018-05-24T16:15:48.584Z,6.27
2018-05-24T16:18:15.158Z,6.40
2018-05-24T16:20:41.777Z,6.70
2018-05-24T16:23:08.377Z,6.53
2018-05-24T16:25:34.986Z,6.47
2018-05-24T16:28:01.585Z,7.63
2018-05-24T16:30:28.282Z,6.30
2018-05-24T16:32:54.870Z,7.37
2018-05-24T16:35:21.510Z,7.10
2018-05-24T16:37:48.102Z,7.00
2018-05-24T16:40:14.743Z,7.90
2018-05-24T16:42:41.377Z,8.93
2018-05-24T16:45:07.956Z,6.03
2018-05-24T17:56:13.560Z,18.07
2018-05-24T17:58:40.968Z,17.40
2018-05-24T18:01:09.302Z,17.83
2018-05-24T18:03:37.546Z,19.07
2018-05-24T18:06:05.005Z,17.60
2018-05-24T18:08:32.434Z,18.67
2018-05-24T18:10:59.864Z,18.50
2018-05-24T18:13:27.309Z,18.17
2018-05-24T18:15:54.741Z,19.73
2018-05-24T18:18:22.181Z,16.87
2018-05-24T18:20:49.638Z,17.50
2018-05-24T18:23:17.058Z,18.30
2018-05-24T18:25:44.520Z,18.33
2018-05-24T18:28:11.956Z,17.30
2018-05-24T18:30:39.469Z,17.13
2018-05-24T18:33:06.901Z,16.60
2018-05-24T18:35:34.317Z,16.70
2018-05-24T18:38:01.768Z,16.77
2018-05-24T18:40:29.187Z,16.23
2018-05-24T18:42:56.705Z,16.13
2018-05-24T18:45:24.075Z,15.67
2018-05-24T18:47:51.491Z,15.17
2018-05-24T18:50:18.927Z,15.50
2018-05-24T18:52:46.343Z,16.40
2018-05-24T18:55:13.764Z,15.67
2018-05-24T18:57:41.203Z,15.23
2018-05-24T19:00:08.618Z,15.13
2018-05-24T19:02:36.090Z,15.53
2018-05-24T19:05:03.551Z,14.10
2018-05-24T19:07:31.050Z,14.07
2018-05-24T19:09:58.710Z,13.23
2018-05-24T19:12:26.517Z,15.20
2018-05-24T19:14:53.956Z,13.50
2018-05-24T19:17:21.415Z,13.10
2018-05-24T19:19:48.872Z,14.33
2018-05-24T19:22:16.312Z,14.23
2018-05-24T19:24:43.759Z,13.30
2018-05-24T19:27:11.194Z,13.87
2018-05-24T19:29:38.605Z,13.23
2018-05-24T19:32:06.058Z,13.20
2018-05-24T19:34:33.549Z,14.00
2018-05-24T19:37:01.009Z,13.93
2018-05-24T19:39:28.447Z,13.13
2018-05-24T19:41:55.885Z,14.53
2018-05-24T19:44:23.493Z,13.73
2018-05-24T19:46:50.938Z,15.03
2018-05-24T19:49:18.465Z,14.47
2018-05-24T19:51:45.891Z,15.77
2018-05-24T19:54:13.336Z,15.67
2018-05-24T19:56:40.793Z,15.90
2018-05-24T19:59:08.181Z,16.33
2018-05-24T20:01:35.634Z,17.13
2018-05-24T20:04:03.073Z,18.23
2018-05-24T20:06:30.504Z,17.40
2018-05-24T20:08:57.904Z,17.53
2018-05-24T20:11:25.352Z,17.47
2018-05-24T20:13:52.790Z,18.70
2018-05-24T20:16:20.367Z,17.63
2018-05-24T20:18:47.839Z,18.53
2018-05-24T20:21:15.243Z,19.10
2018-05-24T20:23:42.688Z,18.80
2018-05-24T20:26:10.078Z,17.90
2018-05-24T20:28:37.496Z,18.67
2018-05-24T20:31:04.893Z,17.50
2018-05-24T20:33:32.388Z,18.30
2018-05-24T20:35:59.800Z,19.07
2018-05-24T20:38:27.271Z,18.73
2018-05-24T20:40:54.686Z,18.53
2018-05-24T20:43:22.134Z,16.67
2018-05-24T20:45:49.559Z,18.53
2018-05-24T20:48:17.024Z,18.37
2018-05-24T20:50:44.460Z,18.07
2018-05-24T20:53:11.899Z,18.97
2018-05-24T20:55:39.351Z,17.87
2018-05-24T20:58:06.817Z,18.23
2018-05-24T21:00:34.242Z,18.40
2018-05-24T21:03:01.679Z,18.77
2018-05-24T21:05:29.164Z,20.10
2018-05-24T21:07:56.555Z,16.80
2018-05-24T21:10:23.999Z,18.13
2018-05-24T21:12:51.430Z,18.27
2018-05-24T21:15:18.849Z,18.43
2018-05-24T21:17:46.293Z,17.20
2018-05-24T21:20:13.796Z,19.00
2018-05-24T21:22:41.229Z,18.43
2018-05-24T21:25:08.646Z,18.90
2018-05-24T21:27:36.083Z,19.50
2018-05-24T21:30:03.512Z,19.67
2018-05-24T21:32:30.930Z,18.50
2018-05-24T21:34:58.441Z,19.40
2018-05-24T21:37:25.884Z,19.80
2018-05-24T21:39:53.445Z,19.10
2018-05-24T21:42:20.891Z,20.23
2018-05-24T21:44:48.322Z,21.20
2018-05-24T21:47:15.828Z,22.27
2018-05-24T21:49:43.238Z,21.30
2018-05-24T21:52:10.729Z,22.13
2018-05-24T21:54:38.127Z,22.30
2018-05-24T21:57:05.559Z,23.20
2018-05-24T21:59:33.012Z,22.00
2018-05-24T22:02:00.640Z,21.30
2018-05-24T22:04:28.050Z,23.60
2018-05-24T22:06:55.457Z,23.03
2018-05-24T22:09:22.891Z,25.17
2018-05-24T22:11:50.312Z,24.43
2018-05-24T22:14:17.737Z,25.97
2018-05-24T22:16:45.182Z,26.27
2018-05-24T22:19:12.602Z,25.63
2018-05-24T22:21:40.218Z,25.77
2018-05-24T22:24:07.650Z,28.10
2018-05-24T22:26:35.029Z,28.73
2018-05-24T22:29:02.469Z,29.87
2018-05-24T22:31:29.888Z,30.63
2018-05-24T22:33:57.323Z,34.57
2018-05-24T22:36:24.723Z,32.60
2018-05-24T22:38:52.163Z,34.83
2018-05-24T22:41:19.575Z,35.20
2018-05-24T22:43:47.031Z,36.40
2018-05-24T22:46:14.428Z,33.13
2018-05-24T22:48:41.860Z,35.30
2018-05-24T22:51:09.304Z,36.87
2018-05-24T22:53:36.796Z,37.20
2018-05-24T22:56:04.191Z,38.03
2018-05-24T22:58:31.597Z,37.60
2018-05-24T23:00:59.021Z,38.37
2018-05-24T23:03:26.468Z,38.53
2018-05-24T23:05:53.886Z,39.63
2018-05-24T23:08:21.280Z,38.90
2018-05-24T23:10:48.856Z,40.00
2018-05-24T23:13:16.271Z,40.17
2018-05-24T23:15:43.703Z,40.03
2018-05-24T23:18:11.125Z,41.77
2018-05-24T23:20:38.556Z,40.37
2018-05-24T23:23:05.963Z,39.27
2018-05-24T23:25:33.418Z,41.83
2018-05-24T23:28:00.840Z,40.70
2018-05-24T23:30:28.227Z,43.53
2018-05-24T23:32:55.639Z,40.77
2018-05-24T23:35:23.050Z,41.73
2018-05-24T23:37:50.517Z,38.50
2018-05-24T23:40:17.928Z,39.27
2018-05-24T23:42:45.372Z,40.23
2018-05-24T23:45:13.182Z,39.60
2018-05-24T23:47:40.624Z,39.93
2018-05-24T23:50:08.770Z,41.43
2018-05-24T23:52:36.840Z,40.63
2018-05-24T23:55:04.220Z,42.60
2018-05-24T23:57:31.650Z,42.30
2018-05-24T23:59:59.085Z,42.13
